createdAt,value
2023-02-24T00:00:31.012Z,9.67
2023-02-24T00:03:12.731Z,9.67
2023-02-24T00:05:42.845Z,9.68
2023-02-24T00:08:10.694Z,9.67
2023-02-24T00:10:38.484Z,9.66
2023-02-24T00:13:06.341Z,9.66
2023-02-24T00:15:34.179Z,9.66
2023-02-24T00:18:07.150Z,9.67
2023-02-24T00:20:35.610Z,9.66
2023-02-24T00:23:03.809Z,9.66
2023-02-24T00:25:31.652Z,9.66
2023-02-24T00:28:01.652Z,9.65
2023-02-24T00:30:31.549Z,9.64
2023-02-24T00:33:01.397Z,9.65
2023-02-24T00:35:32.248Z,9.64
2023-02-24T00:38:00.817Z,9.62
2023-02-24T00:40:30.767Z,9.61
2023-02-24T00:43:00.481Z,9.60
2023-02-24T00:45:30.960Z,9.59
2023-02-24T00:47:58.928Z,9.58
2023-02-24T00:50:26.852Z,9.56
2023-02-24T00:52:54.631Z,9.56
2023-02-24T00:55:23.261Z,9.56
2023-02-24T00:57:51.086Z,9.56
2023-02-24T01:00:23.426Z,9.57
2023-02-24T01:02:51.321Z,9.55
2023-02-24T01:05:20.210Z,9.53
2023-02-24T01:07:48.076Z,9.51
2023-02-24T01:10:18.445Z,9.51
2023-02-24T01:12:54.077Z,9.50
2023-02-24T01:15:22.877Z,9.51
2023-02-24T01:17:50.824Z,9.52
2023-02-24T01:20:19.126Z,9.53
2023-02-24T01:22:50.580Z,9.52
2023-02-24T01:25:20.524Z,9.52
2023-02-24T01:27:49.028Z,9.52
2023-02-24T01:30:18.344Z,9.52
2023-02-24T01:32:47.301Z,9.50
2023-02-24T01:35:15.963Z,9.48
2023-02-24T01:37:45.194Z,9.47
2023-02-24T01:40:18.786Z,9.46
2023-02-24T01:42:47.730Z,9.45
2023-02-24T01:45:22.850Z,9.42
2023-02-24T01:47:52.208Z,9.40
2023-02-24T01:50:25.999Z,9.39
2023-02-24T01:52:58.831Z,9.38
2023-02-24T01:55:32.783Z,9.37
2023-02-24T01:58:07.881Z,9.36
2023-02-24T02:00:39.054Z,9.35
2023-02-24T02:03:12.176Z,9.33
2023-02-24T02:05:42.414Z,9.33
2023-02-24T02:08:11.180Z,9.30
2023-02-24T02:10:41.333Z,9.28
2023-02-24T02:13:09.197Z,9.29
2023-02-24T02:15:47.739Z,9.30
2023-02-24T02:18:36.425Z,9.30
2023-02-24T02:21:32.622Z,9.30
2023-02-24T02:24:09.241Z,9.28
2023-02-24T02:27:02.376Z,9.26
2023-02-24T02:29:53.286Z,9.26
2023-02-24T02:32:31.744Z,9.24
2023-02-24T02:35:18.865Z,9.24
2023-02-24T02:37:57.116Z,9.22
2023-02-24T02:40:39.026Z,9.20
2023-02-24T02:43:25.953Z,9.20
2023-02-24T02:46:14.904Z,9.22
2023-02-24T02:48:57.348Z,9.22
2023-02-24T02:51:32.168Z,9.21
2023-02-24T02:54:33.963Z,9.21
2023-02-24T02:57:12.938Z,9.22
2023-02-24T02:59:49.317Z,9.21
2023-02-24T03:02:28.626Z,9.22
2023-02-24T03:05:02.163Z,9.22
2023-02-24T03:07:37.584Z,9.23
2023-02-24T03:10:17.645Z,9.23
2023-02-24T03:12:50.657Z,9.23
2023-02-24T03:15:24.153Z,9.24
2023-02-24T03:18:12.032Z,9.25
2023-02-24T03:20:47.866Z,9.26
2023-02-24T03:23:25.768Z,9.27
2023-02-24T03:25:58.857Z,9.27
2023-02-24T03:28:37.347Z,9.28
2023-02-24T03:31:18.208Z,9.29
2023-02-24T03:34:00.640Z,9.29
2023-02-24T03:36:29.501Z,9.30
2023-02-24T03:38:58.643Z,9.31
2023-02-24T03:41:31.651Z,9.33
2023-02-24T03:44:01.520Z,9.33
2023-02-24T03:46:31.922Z,9.31
2023-02-24T03:49:17.052Z,9.31
2023-02-24T03:51:59.669Z,9.30
2023-02-24T03:54:48.420Z,9.28
2023-02-24T03:57:27.182Z,9.25
2023-02-24T04:00:26.050Z,9.23
2023-02-24T04:03:09.675Z,9.19
2023-02-24T04:05:47.650Z,9.19
2023-02-24T04:08:17.196Z,9.17
2023-02-24T04:10:57.444Z,9.16
2023-02-24T04:14:09.938Z,9.14
2023-02-24T04:16:54.112Z,9.11
2023-02-24T04:19:27.676Z,9.08
2023-02-24T04:21:57.289Z,9.07
2023-02-24T04:24:30.465Z,9.06
2023-02-24T04:27:01.938Z,9.06
2023-02-24T04:29:35.850Z,9.06
2023-02-24T04:32:08.961Z,9.04
2023-02-24T04:34:40.354Z,9.02
2023-02-24T04:37:09.213Z,9.01
2023-02-24T04:39:38.496Z,9.00
2023-02-24T04:42:10.876Z,9.00
2023-02-24T04:44:38.683Z,8.97
2023-02-24T04:47:07.274Z,8.96
2023-02-24T04:49:35.191Z,8.96
2023-02-24T04:52:03.068Z,8.97
2023-02-24T04:54:31.524Z,8.99
2023-02-24T04:56:59.498Z,9.00
2023-02-24T04:59:27.947Z,9.02
2023-02-24T05:02:00.402Z,9.04
2023-02-24T05:04:30.111Z,9.05
2023-02-24T05:06:57.990Z,9.07
2023-02-24T05:09:30.025Z,9.07
2023-02-24T05:11:58.403Z,9.07
2023-02-24T05:14:26.354Z,9.07
2023-02-24T05:17:00.036Z,9.09
2023-02-24T05:19:47.460Z,9.09
2023-02-24T05:22:17.637Z,9.10
2023-02-24T05:24:48.009Z,9.10
2023-02-24T05:27:17.294Z,9.09
2023-02-24T05:29:45.200Z,9.07
2023-02-24T05:32:13.191Z,9.04
2023-02-24T05:34:42.709Z,9.03
2023-02-24T05:37:10.857Z,9.03
2023-02-24T05:39:38.786Z,9.02
2023-02-24T05:42:07.149Z,9.02
2023-02-24T05:44:35.949Z,9.01
2023-02-24T05:47:05.541Z,8.98
2023-02-24T05:49:35.260Z,8.96
2023-02-24T05:52:08.769Z,8.93
2023-02-24T05:54:39.900Z,8.88
2023-02-24T05:57:21.330Z,8.89
2023-02-24T05:59:50.569Z,8.90
2023-02-24T06:02:27.483Z,8.93
2023-02-24T06:04:56.065Z,8.95
2023-02-24T06:07:28.733Z,8.94
2023-02-24T06:09:58.793Z,8.95
2023-02-24T06:12:31.871Z,8.97
2023-02-24T06:15:00.406Z,8.98
2023-02-24T06:17:28.574Z,8.99
2023-02-24T06:19:56.742Z,8.95
2023-02-24T06:22:26.411Z,8.83
2023-02-24T06:24:55.212Z,8.64
2023-02-24T06:27:24.953Z,8.41
2023-02-24T06:29:54.975Z,8.21
2023-02-24T06:32:25.592Z,8.04
2023-02-24T06:34:54.438Z,7.86
2023-02-24T06:37:25.479Z,7.72
2023-02-24T06:39:53.413Z,7.63
2023-02-24T06:42:21.901Z,7.55
2023-02-24T06:44:50.405Z,7.48
2023-02-24T06:47:18.566Z,7.39
2023-02-24T06:49:47.974Z,7.24
2023-02-24T06:52:19.087Z,7.08
2023-02-24T06:54:49.084Z,6.95
2023-02-24T06:57:17.380Z,6.87
2023-02-24T06:59:46.116Z,6.79
2023-02-24T07:02:14.193Z,6.77
2023-02-24T07:04:44.789Z,6.78
2023-02-24T07:07:14.417Z,6.79
2023-02-24T07:09:42.715Z,6.79
2023-02-24T07:12:12.539Z,6.79
2023-02-24T07:14:40.820Z,6.77
2023-02-24T07:17:08.874Z,6.77
2023-02-24T07:19:36.947Z,6.77
2023-02-24T07:22:04.857Z,6.76
2023-02-24T07:24:40.653Z,6.77
2023-02-24T07:27:12.630Z,6.77
2023-02-24T07:29:40.511Z,6.73
2023-02-24T07:32:09.454Z,6.71
2023-02-24T07:34:41.007Z,7.04
2023-02-24T07:37:10.154Z,7.41
2023-02-24T07:39:39.494Z,7.68
2023-02-24T07:42:09.684Z,7.94
2023-02-24T07:44:46.652Z,8.12
2023-02-24T07:47:15.902Z,8.25
2023-02-24T07:49:45.252Z,8.34
2023-02-24T07:52:13.408Z,8.42
2023-02-24T07:54:41.249Z,8.39
2023-02-24T07:57:13.982Z,8.27
2023-02-24T07:59:46.772Z,8.16
2023-02-24T08:02:15.859Z,8.07
2023-02-24T08:04:50.111Z,8.00
2023-02-24T08:07:24.767Z,7.94
2023-02-24T08:10:12.121Z,7.86
2023-02-24T08:12:44.544Z,7.78
2023-02-24T08:15:23.747Z,7.72
2023-02-24T08:17:59.629Z,7.70
2023-02-24T08:20:36.005Z,7.67
2023-02-24T08:23:06.496Z,7.60
2023-02-24T08:25:37.197Z,7.55
2023-02-24T08:28:11.447Z,7.51
2023-02-24T08:30:47.108Z,7.50
2023-02-24T08:33:22.040Z,7.50
2023-02-24T08:36:01.003Z,7.48
2023-02-24T08:38:42.058Z,7.42
2023-02-24T08:41:18.251Z,7.38
2023-02-24T08:43:48.398Z,7.39
2023-02-24T08:46:26.589Z,7.43
2023-02-24T08:49:00.569Z,7.42
2023-02-24T08:51:34.581Z,7.46
2023-02-24T08:54:11.398Z,7.50
2023-02-24T08:56:43.546Z,7.51
2023-02-24T08:59:29.366Z,7.50
2023-02-24T09:02:18.403Z,7.53
2023-02-24T09:04:59.004Z,7.54
2023-02-24T09:07:35.529Z,7.59
2023-02-24T09:10:17.761Z,7.65
2023-02-24T09:12:47.010Z,7.73
2023-02-24T09:15:15.743Z,7.80
2023-02-24T09:17:45.392Z,7.83
2023-02-24T09:20:27.128Z,7.87
2023-02-24T09:23:07.772Z,7.90
2023-02-24T09:25:41.742Z,7.91
2023-02-24T09:28:24.624Z,7.96
2023-02-24T09:30:58.487Z,8.06
2023-02-24T09:33:28.075Z,8.10
2023-02-24T09:36:10.326Z,8.09
2023-02-24T09:39:09.809Z,8.10
2023-02-24T09:42:07.984Z,8.09
2023-02-24T09:44:42.075Z,8.08
2023-02-24T09:47:31.008Z,8.09
2023-02-24T09:50:05.978Z,8.05
2023-02-24T09:52:43.166Z,8.02
2023-02-24T09:55:27.665Z,8.03
2023-02-24T09:58:26.971Z,8.03
2023-02-24T10:01:21.278Z,8.08
2023-02-24T10:04:18.548Z,8.12
2023-02-24T10:06:49.150Z,8.17
2023-02-24T10:09:24.703Z,8.23
2023-02-24T10:12:04.061Z,8.31
2023-02-24T10:14:53.019Z,8.37
2023-02-24T10:17:24.259Z,8.43
2023-02-24T10:20:00.091Z,8.50
2023-02-24T10:22:50.789Z,8.63
2023-02-24T10:25:37.498Z,8.75
2023-02-24T10:28:43.950Z,8.67
2023-02-24T10:31:25.993Z,8.61
2023-02-24T10:34:06.118Z,8.54
2023-02-24T10:36:39.312Z,8.59
2023-02-24T10:39:17.064Z,8.61
2023-02-24T10:41:50.168Z,8.59
2023-02-24T10:44:25.583Z,8.62
2023-02-24T10:47:12.482Z,8.63
2023-02-24T10:49:57.146Z,8.55
2023-02-24T10:53:06.725Z,8.50
2023-02-24T10:55:45.353Z,8.47
2023-02-24T10:58:28.522Z,8.52
2023-02-24T11:01:11.959Z,8.65
2023-02-24T11:03:48.172Z,8.78
2023-02-24T11:06:41.310Z,8.94
2023-02-24T11:09:30.089Z,9.12
2023-02-24T11:12:38.454Z,9.41
2023-02-24T11:15:37.478Z,9.75
2023-02-24T11:18:07.011Z,10.01
2023-02-24T11:20:49.497Z,10.18
2023-02-24T11:23:23.643Z,10.18
2023-02-24T11:26:04.716Z,10.17
2023-02-24T11:28:48.907Z,10.18
2023-02-24T11:31:28.770Z,10.20
2023-02-24T11:34:07.607Z,10.18
2023-02-24T11:36:58.096Z,10.22
2023-02-24T11:39:53.081Z,10.32
2023-02-24T11:42:46.118Z,10.59
2023-02-24T11:45:29.979Z,10.82
2023-02-24T11:48:03.073Z,11.07
2023-02-24T11:50:39.837Z,11.30
2023-02-24T11:53:35.493Z,11.55
2023-02-24T11:56:11.155Z,11.80
2023-02-24T11:59:21.310Z,11.99
2023-02-24T12:02:10.605Z,12.05
2023-02-24T12:04:52.549Z,12.09
2023-02-24T12:07:39.023Z,12.00
2023-02-24T12:10:17.774Z,11.92
2023-02-24T12:13:16.202Z,11.83
2023-02-24T12:15:50.630Z,11.75
2023-02-24T12:18:39.679Z,11.63
2023-02-24T12:21:21.598Z,11.44
2023-02-24T12:23:53.619Z,11.35
2023-02-24T12:26:24.302Z,11.22
2023-02-24T12:29:27.881Z,11.18
2023-02-24T12:32:01.755Z,11.17
2023-02-24T12:34:43.501Z,11.13
2023-02-24T12:37:40.203Z,11.17
2023-02-24T12:40:14.230Z,11.40
2023-02-24T12:43:03.642Z,11.58
2023-02-24T12:45:47.797Z,11.52
2023-02-24T12:48:40.711Z,11.24
2023-02-24T12:51:28.554Z,11.04
2023-02-24T12:54:15.529Z,10.85
2023-02-24T12:57:02.720Z,10.71
2023-02-24T12:59:38.086Z,10.67
2023-02-24T13:02:14.997Z,10.73
2023-02-24T13:05:10.139Z,10.73
2023-02-24T13:07:48.335Z,10.66
2023-02-24T13:10:28.648Z,10.53
2023-02-24T13:13:16.460Z,10.43
2023-02-24T13:15:56.309Z,10.34
2023-02-24T13:18:36.579Z,10.45
2023-02-24T13:21:23.423Z,10.67
2023-02-24T13:24:01.083Z,10.82
2023-02-24T13:26:32.143Z,10.94
2023-02-24T13:29:11.479Z,11.00
2023-02-24T13:31:50.881Z,11.05
2023-02-24T13:34:21.905Z,11.14
2023-02-24T13:36:50.327Z,11.23
2023-02-24T13:39:24.277Z,11.29
2023-02-24T13:42:04.274Z,11.40
2023-02-24T13:44:32.774Z,11.51
2023-02-24T13:47:15.803Z,11.62
2023-02-24T13:49:54.389Z,11.73
2023-02-24T13:53:00.751Z,11.81
2023-02-24T13:55:39.698Z,11.84
2023-02-24T13:58:19.203Z,11.81
2023-02-24T14:00:59.898Z,11.72
2023-02-24T14:03:29.213Z,11.50
2023-02-24T14:05:59.301Z,11.35
2023-02-24T14:08:36.572Z,11.24
2023-02-24T14:11:06.746Z,11.14
2023-02-24T14:13:36.684Z,11.02
2023-02-24T14:16:11.830Z,10.95
2023-02-24T14:18:41.022Z,10.91
2023-02-24T14:21:21.462Z,10.85
2023-02-24T14:24:00.562Z,10.83
2023-02-24T14:26:33.619Z,10.78
2023-02-24T14:29:02.134Z,10.71
2023-02-24T14:31:30.443Z,10.69
2023-02-24T14:34:03.452Z,10.67
2023-02-24T14:36:35.790Z,10.64
2023-02-24T14:39:16.868Z,10.60
2023-02-24T14:41:46.092Z,10.58
2023-02-24T14:44:27.201Z,10.57
2023-02-24T14:46:57.444Z,10.61
2023-02-24T14:49:30.845Z,10.65
2023-02-24T14:52:05.543Z,10.69
2023-02-24T14:54:36.398Z,10.72
2023-02-24T14:57:04.955Z,10.76
2023-02-24T14:59:40.091Z,10.77
2023-02-24T15:02:15.310Z,10.76
2023-02-24T15:04:44.602Z,10.71
2023-02-24T15:07:30.907Z,10.61
2023-02-24T15:10:00.128Z,10.47
2023-02-24T15:12:46.840Z,10.30
2023-02-24T15:15:21.994Z,10.05
2023-02-24T15:17:55.574Z,9.88
2023-02-24T15:20:31.155Z,9.80
2023-02-24T15:22:59.526Z,9.67
2023-02-24T15:25:43.448Z,9.51
2023-02-24T15:28:31.477Z,9.37
2023-02-24T15:31:19.839Z,9.30
2023-02-24T15:34:00.327Z,9.29
2023-02-24T15:36:32.751Z,9.29
2023-02-24T15:39:11.826Z,9.27
2023-02-24T15:41:40.799Z,9.21
2023-02-24T15:44:25.184Z,9.11
2023-02-24T15:46:53.518Z,9.02
2023-02-24T15:49:21.475Z,8.88
2023-02-24T15:51:52.393Z,8.53
2023-02-24T15:54:25.116Z,8.23
2023-02-24T15:56:53.030Z,7.96
2023-02-24T15:59:23.432Z,7.76
2023-02-24T16:01:54.161Z,7.55
2023-02-24T16:04:23.221Z,7.38
2023-02-24T16:06:54.689Z,7.17
2023-02-24T16:09:39.912Z,7.00
2023-02-24T16:12:14.970Z,6.84
2023-02-24T16:14:43.905Z,6.71
2023-02-24T16:17:28.128Z,6.58
2023-02-24T16:19:56.928Z,6.47
2023-02-24T16:22:24.909Z,6.40
2023-02-24T16:24:53.166Z,6.34
2023-02-24T16:27:23.356Z,6.31
2023-02-24T16:29:51.244Z,6.31
2023-02-24T16:32:22.158Z,6.29
2023-02-24T16:34:50.154Z,6.30
2023-02-24T16:37:26.352Z,6.26
2023-02-24T16:39:54.836Z,6.22
2023-02-24T16:42:23.012Z,6.17
2023-02-24T16:44:51.149Z,6.17
2023-02-24T16:47:22.898Z,6.19
2023-02-24T16:49:55.336Z,6.24
2023-02-24T16:52:24.802Z,6.31
2023-02-24T16:54:52.700Z,6.37
2023-02-24T16:57:25.639Z,6.41
2023-02-24T16:59:53.717Z,6.42
2023-02-24T17:02:26.070Z,6.45
2023-02-24T17:04:54.204Z,6.46
2023-02-24T17:07:22.082Z,6.49
2023-02-24T17:09:50.494Z,6.52
2023-02-24T17:12:21.912Z,6.55
2023-02-24T17:14:49.982Z,6.58
2023-02-24T17:17:17.917Z,6.61
2023-02-24T17:19:45.742Z,6.64
2023-02-24T17:22:13.572Z,6.64
2023-02-24T17:24:41.412Z,6.65
2023-02-24T17:27:11.062Z,6.64
2023-02-24T17:29:38.920Z,6.63
2023-02-24T17:32:06.917Z,6.61
2023-02-24T17:34:34.844Z,6.60
2023-02-24T17:37:03.688Z,6.61
2023-02-24T17:39:32.671Z,6.62
2023-02-24T17:42:00.888Z,6.64
2023-02-24T17:44:28.840Z,6.64
2023-02-24T17:46:56.741Z,6.65
2023-02-24T17:49:24.860Z,6.67
2023-02-24T17:51:52.859Z,6.68
2023-02-24T17:54:20.727Z,6.69
2023-02-24T17:56:48.642Z,6.69
2023-02-24T17:59:16.604Z,6.70
2023-02-24T18:01:44.431Z,6.73
2023-02-24T18:04:14.742Z,6.73
2023-02-24T18:06:43.368Z,6.70
2023-02-24T18:09:11.856Z,6.71
2023-02-24T18:11:39.791Z,6.73
2023-02-24T18:14:07.717Z,6.75
2023-02-24T18:16:35.686Z,6.78
2023-02-24T18:19:04.266Z,6.80
2023-02-24T18:21:32.319Z,6.83
2023-02-24T18:24:00.156Z,6.83
2023-02-24T18:26:28.617Z,6.85
2023-02-24T18:28:58.297Z,6.87
2023-02-24T18:31:28.066Z,6.89
2023-02-24T18:33:57.152Z,6.91
2023-02-24T18:36:26.029Z,6.90
2023-02-24T18:38:54.041Z,6.90
2023-02-24T18:41:23.611Z,6.90
2023-02-24T18:43:54.240Z,6.90
2023-02-24T18:46:23.604Z,6.88
2023-02-24T18:48:51.937Z,6.75
2023-02-24T18:51:22.289Z,6.59
2023-02-24T18:53:52.783Z,6.49
2023-02-24T18:56:24.550Z,6.45
2023-02-24T18:58:56.214Z,6.42
2023-02-24T19:01:27.153Z,6.34
2023-02-24T19:03:56.322Z,6.26
2023-02-24T19:06:26.979Z,6.18
2023-02-24T19:08:58.873Z,6.18
2023-02-24T19:11:27.155Z,6.19
2023-02-24T19:13:55.751Z,6.19
2023-02-24T19:16:23.951Z,6.17
2023-02-24T19:18:53.768Z,6.12
2023-02-24T19:21:21.755Z,6.11
2023-02-24T19:23:50.467Z,6.11
2023-02-24T19:26:21.287Z,6.10
2023-02-24T19:28:49.760Z,6.10
2023-02-24T19:31:20.819Z,6.11
2023-02-24T19:34:08.625Z,6.10
2023-02-24T19:36:37.736Z,6.07
2023-02-24T19:39:09.645Z,6.06
2023-02-24T19:41:38.316Z,6.05
2023-02-24T19:44:06.142Z,6.04
2023-02-24T19:46:34.374Z,6.02
2023-02-24T19:49:03.115Z,5.99
2023-02-24T19:51:31.343Z,5.94
2023-02-24T19:54:03.174Z,5.86
2023-02-24T19:56:33.932Z,5.79
2023-02-24T19:59:03.780Z,5.71
2023-02-24T20:01:32.262Z,5.70
2023-02-24T20:04:02.290Z,5.71
2023-02-24T20:06:33.210Z,5.73
2023-02-24T20:09:02.430Z,5.75
2023-02-24T20:11:31.021Z,5.78
2023-02-24T20:13:58.936Z,5.80
2023-02-24T20:16:31.983Z,5.80
2023-02-24T20:19:00.678Z,5.80
2023-02-24T20:21:29.207Z,5.81
2023-02-24T20:24:01.409Z,5.81
2023-02-24T20:26:30.061Z,5.82
2023-02-24T20:28:59.993Z,5.84
2023-02-24T20:31:28.641Z,5.85
2023-02-24T20:33:56.651Z,5.85
2023-02-24T20:36:26.948Z,5.86
2023-02-24T20:38:57.775Z,5.89
2023-02-24T20:41:27.721Z,5.92
2023-02-24T20:43:55.932Z,5.94
2023-02-24T20:46:29.653Z,5.96
2023-02-24T20:48:59.335Z,5.98
2023-02-24T20:51:29.481Z,5.98
2023-02-24T20:53:58.785Z,5.95
2023-02-24T20:56:29.667Z,5.92
2023-02-24T20:59:13.796Z,5.92
2023-02-24T21:01:42.316Z,5.93
2023-02-24T21:04:12.650Z,5.93
2023-02-24T21:06:41.023Z,5.94
2023-02-24T21:09:11.884Z,5.89
2023-02-24T21:11:39.992Z,5.79
2023-02-24T21:14:08.070Z,5.70
2023-02-24T21:16:35.933Z,5.63
2023-02-24T21:19:03.781Z,5.55
2023-02-24T21:21:31.614Z,5.45
2023-02-24T21:23:59.413Z,5.37
2023-02-24T21:26:29.184Z,5.32
2023-02-24T21:28:58.610Z,5.27
2023-02-24T21:31:27.195Z,5.23
2023-02-24T21:33:55.948Z,5.19
2023-02-24T21:36:26.054Z,5.15
2023-02-24T21:38:55.369Z,5.10
2023-02-24T21:41:23.924Z,5.08
2023-02-24T21:43:57.088Z,5.07
2023-02-24T21:46:28.136Z,5.03
2023-02-24T21:48:59.548Z,5.01
2023-02-24T21:51:28.375Z,4.98
2023-02-24T21:53:57.305Z,4.97
2023-02-24T21:56:27.924Z,4.96
2023-02-24T21:59:01.159Z,4.98
2023-02-24T22:01:34.913Z,5.00
2023-02-24T22:04:05.644Z,5.03
2023-02-24T22:06:35.863Z,5.03
2023-02-24T22:09:06.199Z,5.04
2023-02-24T22:11:36.606Z,5.05
2023-02-24T22:14:08.334Z,5.04
2023-02-24T22:16:36.804Z,5.04
2023-02-24T22:19:04.935Z,5.05
2023-02-24T22:21:33.294Z,5.07
2023-02-24T22:24:02.999Z,5.07
2023-02-24T22:26:32.179Z,5.06
2023-02-24T22:29:01.051Z,5.08
2023-02-24T22:31:32.368Z,5.09
2023-02-24T22:34:01.076Z,5.07
2023-02-24T22:36:33.455Z,5.06
2023-02-24T22:39:02.234Z,5.05
2023-02-24T22:41:32.981Z,5.06
2023-02-24T22:44:02.905Z,5.06
2023-02-24T22:46:33.960Z,5.03
2023-02-24T22:49:02.868Z,5.04
2023-02-24T22:51:31.138Z,5.06
2023-02-24T22:53:58.966Z,5.06
2023-02-24T22:56:29.041Z,5.06
2023-02-24T22:58:58.214Z,5.04
2023-02-24T23:01:31.884Z,4.99
2023-02-24T23:04:01.196Z,4.96
2023-02-24T23:06:30.640Z,4.96
2023-02-24T23:09:00.495Z,4.95
2023-02-24T23:11:31.041Z,4.91
2023-02-24T23:14:02.144Z,4.86
2023-02-24T23:16:31.967Z,4.86
2023-02-24T23:19:05.996Z,4.87
2023-02-24T23:21:39.868Z,4.88
2023-02-24T23:24:10.955Z,4.90
2023-02-24T23:26:41.847Z,4.91
2023-02-24T23:29:11.881Z,4.92
2023-02-24T23:31:41.094Z,4.92
2023-02-24T23:34:10.053Z,4.92
2023-02-24T23:36:40.763Z,4.94
2023-02-24T23:39:09.310Z,4.94
2023-02-24T23:41:38.487Z,4.96
2023-02-24T23:44:06.381Z,4.98
2023-02-24T23:46:35.864Z,4.97
2023-02-24T23:49:05.184Z,4.99
2023-02-24T23:51:46.916Z,5.01
2023-02-24T23:54:16.964Z,5.02
2023-02-24T23:56:44.852Z,5.03
2023-02-24T23:59:12.698Z,5.05
